Kudat, Malaysia
Current Conditions -  °F | °C
As of 9:00 AM on Sunday 21 Dec 2014 (Local Time) from WBKT Reporting Station
Light Rain Light Rain  
Wind Chill: 77°   Ceiling: 14000
Heat Index: 78°   Visibility: 3mi
Dew Point: 75°   Wind: 6mph
Humidity: 94%   Direction: 90°E
Pressure: 29.85"   Gusts: NA
Location:  6.9°N, 116.84°E
Report Text: WBKT 210100Z 09005KT 030V150 5000 -RA FEW007 SCT030 BKN140 25/24 Q1011 RERA
Loading
Personal Weather Stations






























Interactive Weather Map New forecast layout! Learn more

10-Day Weather Forecast

Advertisements
Track Severe Weather on mobile